Time;durP1;ratioP1;P1;durP2;ratioP2;P2;SDS_P1;SDS_P2;PMS_P1;PMS_P2;Temp;Humidity;BMP_temperature;BMP_pressure;BME280_temperature;BME280_humidity;BME280_pressure;Samples;Min_cycle;Max_cycle;Signal;HPM_P1;HPM_P2
2021/08/03 00:01:43;;;;;;;14.32;5.03;;;;;;;;;;5075089;28;20166;-71
2021/08/03 00:04:14;;;;;;;11.57;4.22;;;;;;;;;;5074598;28;20028;-70
2021/08/03 00:06:43;;;;;;;12.13;4.45;;;;;;;;;;5072583;28;20024;-70
2021/08/03 00:09:10;;;;;;;11.90;4.55;;;;;;;;;;5084418;28;20019;-71
2021/08/03 00:11:40;;;;;;;10.05;4.32;;;;;;;;;;5075869;28;20052;-70
2021/08/03 00:14:06;;;;;;;12.88;4.25;;;;;;;;;;5076991;28;20017;-71
2021/08/03 00:16:36;;;;;;;12.55;5.18;;;;;;;;;;5072932;28;20025;-70
2021/08/03 00:19:03;;;;;;;15.70;5.30;;;;;;;;;;5065809;28;20045;-70
2021/08/03 00:21:29;;;;;;;18.10;5.53;;;;;;;;;;5071031;28;20024;-70
2021/08/03 00:23:55;;;;;;;16.33;5.47;;;;;;;;;;5073253;28;20086;-70
2021/08/03 00:26:22;;;;;;;15.40;5.53;;;;;;;;;;5078184;28;20095;-70
2021/08/03 00:28:52;;;;;;;10.05;4.40;;;;;;;;;;5069540;28;20037;-71
2021/08/03 00:31:19;;;;;;;16.98;5.20;;;;;;;;;;5080269;28;20469;-71
2021/08/03 00:33:46;;;;;;;12.60;4.88;;;;;;;;;;5066234;28;20039;-70
2021/08/03 00:36:13;;;;;;;13.13;4.80;;;;;;;;;;5070848;28;20484;-70
2021/08/03 00:38:39;;;;;;;10.60;4.75;;;;;;;;;;5071914;28;20035;-70
2021/08/03 00:41:07;;;;;;;19.20;5.38;;;;;;;;;;5066829;28;20036;-70
2021/08/03 00:43:33;;;;;;;15.77;4.75;;;;;;;;;;5069904;28;20017;-70
2021/08/03 00:45:59;;;;;;;10.85;4.93;;;;;;;;;;5075086;28;20036;-70
2021/08/03 00:48:26;;;;;;;13.32;5.53;;;;;;;;;;5069877;28;20025;-71
2021/08/03 00:50:52;;;;;;;12.93;4.55;;;;;;;;;;5069633;28;20105;-70
2021/08/03 00:53:18;;;;;;;18.55;5.20;;;;;;;;;;5068900;28;20033;-71
2021/08/03 00:55:45;;;;;;;12.88;4.97;;;;;;;;;;5071642;28;20022;-70
2021/08/03 00:58:12;;;;;;;10.55;4.72;;;;;;;;;;5073582;28;20021;-71
2021/08/03 01:00:38;;;;;;;12.00;5.00;;;;;;;;;;5071120;28;20031;-71
2021/08/03 01:03:05;;;;;;;12.63;4.95;;;;;;;;;;5068264;28;20060;-70
2021/08/03 01:05:50;;;;;;;11.68;4.63;;;;;;;;;;5071700;28;20036;-70
2021/08/03 01:08:21;;;;;;;16.27;5.60;;;;;;;;;;5069229;28;20033;-70
2021/08/03 01:10:55;;;;;;;11.70;4.90;;;;;;;;;;5074335;28;20025;-70
2021/08/03 01:13:45;;;;;;;10.38;5.05;;;;;;;;;;5069793;28;20015;-70
2021/08/03 01:16:27;;;;;;;12.35;5.22;;;;;;;;;;5058259;28;20020;-70
2021/08/03 01:18:53;;;;;;;12.80;4.70;;;;;;;;;;5070906;28;20044;-70
2021/08/03 01:21:29;;;;;;;13.90;5.10;;;;;;;;;;5072412;28;20101;-70
2021/08/03 01:24:14;;;;;;;13.52;5.70;;;;;;;;;;5071992;28;20028;-70
2021/08/03 01:26:58;;;;;;;11.70;5.35;;;;;;;;;;5075789;28;20497;-71
2021/08/03 01:29:26;;;;;;;18.38;5.97;;;;;;;;;;5068535;28;20039;-70
2021/08/03 01:31:54;;;;;;;17.77;6.50;;;;;;;;;;5072759;28;20024;-70
2021/08/03 01:34:22;;;;;;;12.90;5.95;;;;;;;;;;5074467;28;20081;-70
2021/08/03 01:36:52;;;;;;;12.43;6.28;;;;;;;;;;5073528;28;20028;-70
2021/08/03 01:39:20;;;;;;;15.20;5.88;;;;;;;;;;5076636;28;20036;-70
2021/08/03 01:41:49;;;;;;;14.48;5.40;;;;;;;;;;5076469;28;20468;-70
2021/08/03 01:44:15;;;;;;;13.90;5.45;;;;;;;;;;5073282;28;20028;-70
2021/08/03 01:46:44;;;;;;;13.68;6.10;;;;;;;;;;5070359;28;20561;-70
2021/08/03 01:49:11;;;;;;;14.95;5.97;;;;;;;;;;5076132;28;20361;-70
2021/08/03 01:51:37;;;;;;;17.60;6.25;;;;;;;;;;5070106;28;20024;-70
2021/08/03 01:54:05;;;;;;;15.25;6.47;;;;;;;;;;5075702;28;20021;-70
2021/08/03 01:56:31;;;;;;;15.00;6.22;;;;;;;;;;5072460;28;20027;-70
2021/08/03 01:58:58;;;;;;;14.25;5.82;;;;;;;;;;5075678;28;20044;-70
2021/08/03 02:01:27;;;;;;;16.05;6.65;;;;;;;;;;5074272;28;20016;-70
2021/08/03 02:03:54;;;;;;;15.60;6.78;;;;;;;;;;5076527;28;20028;-70
2021/08/03 02:06:24;;;;;;;10.90;5.97;;;;;;;;;;5071964;28;20028;-70
2021/08/03 02:08:50;;;;;;;14.63;6.25;;;;;;;;;;5070885;28;20111;-70
2021/08/03 02:11:17;;;;;;;15.50;6.72;;;;;;;;;;5072808;28;20054;-70
2021/08/03 02:13:45;;;;;;;13.75;6.85;;;;;;;;;;5075410;28;20029;-70
2021/08/03 02:16:11;;;;;;;15.02;6.75;;;;;;;;;;5071461;28;20843;-71
2021/08/03 02:18:37;;;;;;;14.18;6.22;;;;;;;;;;5074114;28;20133;-70
2021/08/03 02:21:03;;;;;;;16.08;6.65;;;;;;;;;;5069902;28;20085;-70
2021/08/03 02:23:30;;;;;;;10.60;6.60;;;;;;;;;;5080208;28;20107;-70
2021/08/03 02:25:56;;;;;;;17.65;6.65;;;;;;;;;;5079444;28;20077;-70
2021/08/03 02:28:22;;;;;;;12.18;6.15;;;;;;;;;;5077890;28;20073;-70
2021/08/03 02:30:50;;;;;;;16.23;6.22;;;;;;;;;;5074194;28;20025;-70
2021/08/03 02:33:21;;;;;;;12.25;6.13;;;;;;;;;;5077020;28;20052;-70
2021/08/03 02:35:55;;;;;;;17.15;6.95;;;;;;;;;;5073962;28;20029;-70
2021/08/03 02:38:23;;;;;;;12.38;5.95;;;;;;;;;;5078554;28;20037;-70
2021/08/03 02:40:50;;;;;;;12.50;6.80;;;;;;;;;;5073692;28;20099;-70
2021/08/03 02:43:17;;;;;;;15.60;7.30;;;;;;;;;;5075660;28;20024;-70
2021/08/03 02:45:44;;;;;;;20.85;7.32;;;;;;;;;;5071701;28;20577;-70
2021/08/03 02:48:15;;;;;;;14.07;7.43;;;;;;;;;;5072329;28;20067;-70
2021/08/03 02:50:44;;;;;;;12.43;6.68;;;;;;;;;;5076568;28;20028;-70
2021/08/03 02:53:34;;;;;;;14.70;6.78;;;;;;;;;;5073034;28;20016;-70
2021/08/03 02:56:10;;;;;;;16.88;7.22;;;;;;;;;;5063849;28;20408;-70
2021/08/03 02:58:41;;;;;;;12.30;6.57;;;;;;;;;;5073085;28;20036;-70
2021/08/03 03:01:09;;;;;;;14.23;7.03;;;;;;;;;;5072731;28;20024;-70
2021/08/03 03:03:36;;;;;;;14.82;7.35;;;;;;;;;;5066237;28;20044;-70
2021/08/03 03:06:04;;;;;;;17.13;8.00;;;;;;;;;;5064241;28;20036;-70
2021/08/03 03:08:30;;;;;;;15.25;7.10;;;;;;;;;;5083095;28;20020;-70
2021/08/03 03:10:59;;;;;;;11.82;7.05;;;;;;;;;;5083293;28;20028;-70
2021/08/03 03:13:28;;;;;;;15.45;6.90;;;;;;;;;;5081596;28;20028;-70
2021/08/03 03:15:55;;;;;;;13.32;7.15;;;;;;;;;;5083388;28;20098;-71
2021/08/03 03:18:21;;;;;;;14.10;6.63;;;;;;;;;;5082839;28;20054;-70
2021/08/03 03:20:48;;;;;;;14.40;7.43;;;;;;;;;;5083308;28;20030;-70
2021/08/03 03:23:16;;;;;;;14.93;6.93;;;;;;;;;;5082938;28;20514;-70
2021/08/03 03:25:43;;;;;;;15.93;7.15;;;;;;;;;;5081335;28;20080;-70
2021/08/03 03:28:10;;;;;;;19.08;7.30;;;;;;;;;;5079144;28;20028;-70
2021/08/03 03:30:37;;;;;;;13.68;7.07;;;;;;;;;;5083531;28;20032;-70
2021/08/03 03:33:05;;;;;;;18.38;7.72;;;;;;;;;;5079065;28;20035;-71
2021/08/03 03:35:35;;;;;;;15.80;7.40;;;;;;;;;;5082591;28;20099;-71
2021/08/03 03:38:03;;;;;;;15.50;7.20;;;;;;;;;;5082621;28;20036;-70
2021/08/03 03:40:29;;;;;;;13.77;6.90;;;;;;;;;;5081822;28;20046;-70
2021/08/03 03:42:57;;;;;;;14.05;7.10;;;;;;;;;;5081351;28;20028;-71
2021/08/03 03:45:26;;;;;;;18.65;7.38;;;;;;;;;;5079801;28;20028;-71
2021/08/03 03:48:03;;;;;;;18.77;7.57;;;;;;;;;;5067107;28;20023;-70
2021/08/03 03:50:31;;;;;;;13.25;6.60;;;;;;;;;;5072888;28;20389;-70
2021/08/03 03:53:04;;;;;;;14.50;7.70;;;;;;;;;;5066330;28;20132;-70
2021/08/03 03:55:31;;;;;;;10.45;7.05;;;;;;;;;;5068002;28;20403;-70
2021/08/03 03:57:57;;;;;;;10.35;6.97;;;;;;;;;;5072922;28;20023;-70
2021/08/03 04:00:24;;;;;;;16.42;7.05;;;;;;;;;;5067361;28;20036;-70
2021/08/03 04:02:51;;;;;;;13.73;6.97;;;;;;;;;;5077997;28;20433;-71
2021/08/03 04:05:17;;;;;;;14.70;6.72;;;;;;;;;;5066761;28;20081;-70
2021/08/03 04:07:49;;;;;;;18.35;6.80;;;;;;;;;;5069474;28;20031;-70
2021/08/03 04:10:17;;;;;;;17.67;7.22;;;;;;;;;;5066614;28;20021;-70
2021/08/03 04:12:43;;;;;;;13.95;6.72;;;;;;;;;;5071132;28;20111;-70
2021/08/03 04:15:10;;;;;;;19.40;7.25;;;;;;;;;;5070547;28;20024;-71
2021/08/03 04:17:36;;;;;;;18.02;8.00;;;;;;;;;;5081815;28;20060;-70
2021/08/03 04:20:03;;;;;;;12.38;6.97;;;;;;;;;;5082167;28;20039;-70
2021/08/03 04:22:29;;;;;;;16.75;7.85;;;;;;;;;;5080622;28;20039;-70
2021/08/03 04:24:55;;;;;;;17.50;7.18;;;;;;;;;;5081152;28;20086;-70
2021/08/03 04:27:21;;;;;;;14.13;7.35;;;;;;;;;;5081739;28;20024;-71
2021/08/03 04:29:48;;;;;;;18.20;7.82;;;;;;;;;;5080294;28;20027;-70
2021/08/03 04:32:19;;;;;;;12.30;6.85;;;;;;;;;;5080724;28;20040;-70
2021/08/03 04:34:45;;;;;;;19.05;7.35;;;;;;;;;;5081279;28;20036;-71
2021/08/03 04:37:17;;;;;;;11.63;7.38;;;;;;;;;;5080969;28;20024;-70
2021/08/03 04:39:46;;;;;;;14.95;7.32;;;;;;;;;;5081350;28;20188;-70
2021/08/03 04:42:19;;;;;;;15.23;7.65;;;;;;;;;;5081754;28;20025;-71
2021/08/03 04:44:51;;;;;;;15.32;7.22;;;;;;;;;;5075498;28;20040;-70
2021/08/03 04:47:20;;;;;;;15.98;8.32;;;;;;;;;;5080291;28;20047;-70
2021/08/03 04:49:46;;;;;;;14.48;8.10;;;;;;;;;;5081513;28;20070;-70
2021/08/03 04:52:17;;;;;;;26.10;8.85;;;;;;;;;;5084107;28;20022;-70
2021/08/03 04:54:53;;;;;;;;;;;;;;;;;;;;;
2021/08/03 04:57:23;;;;;;;19.27;8.43;;;;;;;;;;5072561;28;20016;-70
2021/08/03 04:59:52;;;;;;;16.58;7.30;;;;;;;;;;5085719;28;20036;-71
2021/08/03 05:02:18;;;;;;;19.20;8.02;;;;;;;;;;5081466;28;20016;-70
2021/08/03 05:04:46;;;;;;;10.10;6.60;;;;;;;;;;5084911;28;20043;-70
2021/08/03 05:07:15;;;;;;;12.45;6.57;;;;;;;;;;5083539;28;20028;-72
2021/08/03 05:09:43;;;;;;;10.70;5.65;;;;;;;;;;5083168;28;20107;-73
2021/08/03 05:12:09;;;;;;;11.93;6.40;;;;;;;;;;5073327;28;20035;-73
2021/08/03 05:14:36;;;;;;;17.30;7.55;;;;;;;;;;5073860;28;20032;-72
2021/08/03 05:17:02;;;;;;;12.68;7.35;;;;;;;;;;5082010;28;20040;-72
2021/08/03 05:19:28;;;;;;;13.75;6.22;;;;;;;;;;5083637;28;20441;-72
2021/08/03 05:21:55;;;;;;;16.67;6.40;;;;;;;;;;5083052;28;20027;-72
2021/08/03 05:24:25;;;;;;;12.15;6.65;;;;;;;;;;5079898;28;20036;-71
2021/08/03 05:26:52;;;;;;;11.93;5.67;;;;;;;;;;5073242;28;20406;-72
2021/08/03 05:29:19;;;;;;;15.27;6.20;;;;;;;;;;5085126;28;20036;-72
2021/08/03 05:31:45;;;;;;;14.50;5.50;;;;;;;;;;5081459;28;20407;-72
2021/08/03 05:34:11;;;;;;;8.75;5.80;;;;;;;;;;5082117;28;20040;-73
2021/08/03 05:36:38;;;;;;;11.77;4.70;;;;;;;;;;5084647;28;20097;-72
2021/08/03 05:39:04;;;;;;;9.52;5.03;;;;;;;;;;5083385;28;20032;-72
2021/08/03 05:41:32;;;;;;;10.02;4.50;;;;;;;;;;5082116;28;20032;-73
2021/08/03 05:43:58;;;;;;;7.60;3.55;;;;;;;;;;5084393;28;20468;-73
2021/08/03 05:46:30;;;;;;;9.75;3.75;;;;;;;;;;5083586;28;20055;-73
2021/08/03 05:48:56;;;;;;;;;;;;;;;;;;5073203;28;20064;-73
2021/08/03 05:51:22;;;;;;;10.52;3.42;;;;;;;;;;5084531;28;20510;-73
2021/08/03 05:53:48;;;;;;;8.25;3.17;;;;;;;;;;5083219;28;20099;-73
2021/08/03 05:56:14;;;;;;;8.93;2.60;;;;;;;;;;5084587;28;20032;-73
2021/08/03 05:58:40;;;;;;;4.45;2.42;;;;;;;;;;5082878;28;20032;-73
2021/08/03 06:01:09;;;;;;;12.75;2.72;;;;;;;;;;5074901;28;20033;-73
2021/08/03 06:03:35;;;;;;;8.70;2.40;;;;;;;;;;5081181;28;20552;-73
2021/08/03 06:06:02;;;;;;;6.60;2.58;;;;;;;;;;5084329;28;20024;-73
2021/08/03 06:08:31;;;;;;;4.97;2.25;;;;;;;;;;5084234;28;20028;-73
2021/08/03 06:10:59;;;;;;;5.78;2.40;;;;;;;;;;5084479;28;20024;-73
2021/08/03 06:13:26;;;;;;;5.97;2.35;;;;;;;;;;5084157;28;20020;-73
2021/08/03 06:15:53;;;;;;;6.50;2.33;;;;;;;;;;5083666;28;20054;-73
2021/08/03 06:18:32;;;;;;;6.95;2.85;;;;;;;;;;5082031;28;20419;-73
2021/08/03 06:20:59;;;;;;;8.82;2.72;;;;;;;;;;5082399;28;20573;-73
2021/08/03 06:23:25;;;;;;;6.40;2.80;;;;;;;;;;5084446;28;20065;-73
2021/08/03 06:25:52;;;;;;;7.32;3.08;;;;;;;;;;5082582;28;20032;-73
2021/08/03 06:28:19;;;;;;;15.52;3.50;;;;;;;;;;5083654;28;20047;-73
2021/08/03 06:30:48;;;;;;;8.70;2.88;;;;;;;;;;5082165;28;20115;-73
2021/08/03 06:33:16;;;;;;;7.15;2.28;;;;;;;;;;5083587;28;20022;-73
2021/08/03 06:35:42;;;;;;;14.45;3.25;;;;;;;;;;5082049;28;20104;-73
2021/08/03 06:38:08;;;;;;;6.90;2.72;;;;;;;;;;5083509;28;20516;-74
2021/08/03 06:40:34;;;;;;;6.53;2.53;;;;;;;;;;5081982;28;20468;-73
2021/08/03 06:43:09;;;;;;;6.63;2.45;;;;;;;;;;5081626;28;20541;-74
2021/08/03 06:45:37;;;;;;;11.82;2.78;;;;;;;;;;5083647;28;20040;-73
2021/08/03 06:48:05;;;;;;;6.45;2.50;;;;;;;;;;5082349;28;20111;-73
2021/08/03 06:50:35;;;;;;;8.00;2.17;;;;;;;;;;5083108;28;20103;-73
2021/08/03 06:53:02;;;;;;;5.38;1.90;;;;;;;;;;5081540;28;20054;-73
2021/08/03 06:55:32;;;;;;;7.35;1.90;;;;;;;;;;5082693;28;20484;-73
2021/08/03 06:58:02;;;;;;;9.10;2.35;;;;;;;;;;5083405;28;20039;-73
2021/08/03 07:00:36;;;;;;;5.55;1.77;;;;;;;;;;5078023;28;20810;-73
2021/08/03 07:03:02;;;;;;;12.40;2.42;;;;;;;;;;5074985;28;20177;-72
2021/08/03 07:05:30;;;;;;;7.55;2.20;;;;;;;;;;5083205;28;20032;-71
2021/08/03 07:07:59;;;;;;;10.13;1.98;;;;;;;;;;5073314;28;20126;-71
2021/08/03 07:10:26;;;;;;;9.88;2.53;;;;;;;;;;5083307;28;20099;-72
2021/08/03 07:12:56;;;;;;;4.45;1.55;;;;;;;;;;5083114;28;20093;-72
2021/08/03 07:15:25;;;;;;;5.07;1.80;;;;;;;;;;5081442;28;20016;-71
2021/08/03 07:17:52;;;;;;;5.40;1.75;;;;;;;;;;5080641;28;20425;-71
2021/08/03 07:20:18;;;;;;;8.45;2.45;;;;;;;;;;5081879;28;20036;-72
2021/08/03 07:22:45;;;;;;;6.80;1.88;;;;;;;;;;5070798;28;20165;-72
2021/08/03 07:25:11;;;;;;;4.97;1.50;;;;;;;;;;5069005;28;20092;-71
2021/08/03 07:27:37;;;;;;;7.68;2.17;;;;;;;;;;5092832;28;20157;-71
2021/08/03 07:30:04;;;;;;;6.70;1.73;;;;;;;;;;5082571;28;20024;-72
2021/08/03 07:32:30;;;;;;;7.78;2.25;;;;;;;;;;5082410;28;20024;-71
2021/08/03 07:34:56;;;;;;;6.75;1.80;;;;;;;;;;5081737;28;20027;-71
2021/08/03 07:37:23;;;;;;;3.28;1.55;;;;;;;;;;5077892;28;20016;-71
2021/08/03 07:39:49;;;;;;;3.38;1.83;;;;;;;;;;5076319;28;20052;-72
2021/08/03 07:42:15;;;;;;;7.50;1.70;;;;;;;;;;5079134;28;20048;-71
2021/08/03 07:44:43;;;;;;;5.60;1.90;;;;;;;;;;5076115;28;20012;-72
2021/08/03 07:47:09;;;;;;;6.03;1.70;;;;;;;;;;5077545;28;20020;-72
2021/08/03 07:49:35;;;;;;;4.13;1.70;;;;;;;;;;5077069;28;20085;-71
2021/08/03 07:52:01;;;;;;;9.80;1.85;;;;;;;;;;5075900;28;20019;-72
2021/08/03 07:54:27;;;;;;;6.03;1.77;;;;;;;;;;5077582;28;20035;-71
2021/08/03 07:56:53;;;;;;;9.85;2.53;;;;;;;;;;5075731;28;20019;-72
2021/08/03 07:59:19;;;;;;;6.60;1.58;;;;;;;;;;5077059;28;20051;-72
2021/08/03 08:01:46;;;;;;;4.95;2.03;;;;;;;;;;5076254;28;20025;-72
2021/08/03 08:04:12;;;;;;;4.95;1.92;;;;;;;;;;5078890;28;20111;-71
2021/08/03 08:06:38;;;;;;;6.57;2.17;;;;;;;;;;5076800;28;20020;-72
2021/08/03 08:09:04;;;;;;;6.55;1.88;;;;;;;;;;5077474;28;20024;-72
2021/08/03 08:11:30;;;;;;;4.65;1.70;;;;;;;;;;5078822;28;20020;-72
2021/08/03 08:13:56;;;;;;;5.68;1.75;;;;;;;;;;5074789;28;20327;-71
2021/08/03 08:16:22;;;;;;;7.47;1.92;;;;;;;;;;5074945;28;20020;-72
2021/08/03 08:18:49;;;;;;;5.70;1.60;;;;;;;;;;5073716;28;20052;-71
2021/08/03 08:21:15;;;;;;;2.88;1.40;;;;;;;;;;5079797;28;20056;-71
2021/08/03 08:23:41;;;;;;;3.38;1.75;;;;;;;;;;5081448;28;20383;-71
2021/08/03 08:26:07;;;;;;;8.82;2.33;;;;;;;;;;5080990;28;20024;-71
2021/08/03 08:28:33;;;;;;;6.38;1.77;;;;;;;;;;5080361;28;20020;-71
2021/08/03 08:30:59;;;;;;;6.75;2.45;;;;;;;;;;5081994;28;20084;-72
2021/08/03 08:33:25;;;;;;;5.35;2.03;;;;;;;;;;5076266;28;20016;-71
2021/08/03 08:35:52;;;;;;;6.15;2.25;;;;;;;;;;5070006;28;20392;-72
2021/08/03 08:38:18;;;;;;;6.88;2.25;;;;;;;;;;5078927;28;20023;-71
2021/08/03 08:40:44;;;;;;;5.28;1.70;;;;;;;;;;5080626;28;20266;-71
2021/08/03 08:43:16;;;;;;;4.95;1.90;;;;;;;;;;5081096;28;20103;-71
2021/08/03 08:45:43;;;;;;;3.92;1.80;;;;;;;;;;5080709;28;20063;-71
2021/08/03 08:48:10;;;;;;;6.13;1.73;;;;;;;;;;5073751;28;20028;-71
2021/08/03 08:50:36;;;;;;;4.82;1.95;;;;;;;;;;5077601;28;20512;-71
2021/08/03 08:53:03;;;;;;;7.38;2.00;;;;;;;;;;5075771;28;20037;-72
2021/08/03 08:55:29;;;;;;;6.78;1.92;;;;;;;;;;5080995;28;20028;-72
2021/08/03 08:57:55;;;;;;;3.88;1.65;;;;;;;;;;5077660;28;20036;-71
2021/08/03 09:00:22;;;;;;;7.97;2.10;;;;;;;;;;5074799;28;20050;-72
2021/08/03 09:02:51;;;;;;;4.47;1.92;;;;;;;;;;5075258;28;20028;-71
2021/08/03 09:05:26;;;;;;;4.38;1.23;;;;;;;;;;5074783;28;20451;-72
2021/08/03 09:07:53;;;;;;;5.05;2.03;;;;;;;;;;5078134;28;20085;-73
2021/08/03 09:10:39;;;;;;;6.97;2.03;;;;;;;;;;5064949;28;20543;-72
2021/08/03 09:13:15;;;;;;;4.28;1.80;;;;;;;;;;5078375;28;20036;-72
2021/08/03 09:15:43;;;;;;;9.73;2.10;;;;;;;;;;5080376;28;20474;-72
2021/08/03 09:18:27;;;;;;;6.35;2.10;;;;;;;;;;5078998;28;20048;-72
2021/08/03 09:20:53;;;;;;;5.88;2.40;;;;;;;;;;5079997;28;20028;-72
2021/08/03 09:23:20;;;;;;;5.15;2.20;;;;;;;;;;5081115;28;20024;-72
2021/08/03 09:25:54;;;;;;;7.22;2.28;;;;;;;;;;5080220;28;20028;-72
2021/08/03 09:28:20;;;;;;;5.60;2.20;;;;;;;;;;5079445;28;20031;-72
2021/08/03 09:30:46;;;;;;;7.38;2.63;;;;;;;;;;5081274;28;20035;-72
2021/08/03 09:33:20;;;;;;;6.43;2.22;;;;;;;;;;5081037;28;20028;-72
2021/08/03 09:35:46;;;;;;;6.53;2.22;;;;;;;;;;5080745;28;20030;-72
2021/08/03 09:38:16;;;;;;;7.97;2.13;;;;;;;;;;5082273;28;20073;-72
2021/08/03 09:40:42;;;;;;;8.23;2.28;;;;;;;;;;5084555;28;20039;-72
2021/08/03 09:43:15;;;;;;;7.82;2.30;;;;;;;;;;5081495;28;20020;-72
2021/08/03 09:45:44;;;;;;;5.07;1.95;;;;;;;;;;5072870;28;20027;-71
2021/08/03 09:48:14;;;;;;;8.98;2.90;;;;;;;;;;5070973;28;20416;-72
2021/08/03 09:50:52;;;;;;;9.33;2.70;;;;;;;;;;5076624;28;20028;-71
2021/08/03 09:53:37;;;;;;;6.65;2.47;;;;;;;;;;5083779;28;20107;-72
2021/08/03 09:56:04;;;;;;;11.57;2.75;;;;;;;;;;5084122;28;20020;-71
2021/08/03 09:58:31;;;;;;;7.45;2.85;;;;;;;;;;5080598;28;20109;-71
2021/08/03 10:00:58;;;;;;;7.35;2.80;;;;;;;;;;5084096;28;20035;-72
2021/08/03 10:03:25;;;;;;;6.22;2.80;;;;;;;;;;5082848;28;20028;-72
2021/08/03 10:05:52;;;;;;;7.88;3.20;;;;;;;;;;5083917;28;20028;-72
2021/08/03 10:08:18;;;;;;;5.18;2.70;;;;;;;;;;5084289;28;20024;-71
2021/08/03 10:10:44;;;;;;;9.05;3.28;;;;;;;;;;5083563;28;20020;-71
2021/08/03 10:13:11;;;;;;;8.30;3.47;;;;;;;;;;5086467;28;20246;-71
2021/08/03 10:15:38;;;;;;;5.93;3.30;;;;;;;;;;5092468;28;20228;-72
2021/08/03 10:18:04;;;;;;;7.63;3.50;;;;;;;;;;5084545;28;20044;-71
2021/08/03 10:20:30;;;;;;;8.13;3.25;;;;;;;;;;5083166;28;20093;-72
2021/08/03 10:23:00;;;;;;;11.07;3.97;;;;;;;;;;5083530;28;20153;-71
2021/08/03 10:25:33;;;;;;;7.78;3.40;;;;;;;;;;5082448;28;20225;-71
2021/08/03 10:28:16;;;;;;;7.35;3.38;;;;;;;;;;5083290;28;20496;-72
2021/08/03 10:30:43;;;;;;;7.85;3.10;;;;;;;;;;5081717;28;20024;-71
2021/08/03 10:33:29;;;;;;;6.60;3.15;;;;;;;;;;5078624;28;20665;-72
2021/08/03 10:35:57;;;;;;;7.95;3.45;;;;;;;;;;5068863;28;20101;-72
2021/08/03 10:38:29;;;;;;;7.88;3.05;;;;;;;;;;5080108;28;20034;-72
2021/08/03 10:40:57;;;;;;;5.90;3.20;;;;;;;;;;5083020;28;20042;-72
2021/08/03 10:43:35;;;;;;;7.68;3.42;;;;;;;;;;5083260;28;20024;-72
2021/08/03 10:46:07;;;;;;;5.68;3.38;;;;;;;;;;5081851;28;20035;-71
2021/08/03 10:48:43;;;;;;;8.27;3.75;;;;;;;;;;5080892;28;20139;-71
2021/08/03 10:51:15;;;;;;;9.20;3.90;;;;;;;;;;5082021;28;20035;-71
2021/08/03 10:53:53;;;;;;;11.38;4.00;;;;;;;;;;5083042;28;20031;-71
2021/08/03 10:56:19;;;;;;;10.57;4.20;;;;;;;;;;5081287;28;20035;-71
2021/08/03 10:58:46;;;;;;;10.20;4.18;;;;;;;;;;5081569;28;20044;-71
2021/08/03 11:01:12;;;;;;;8.10;3.83;;;;;;;;;;5076855;28;20037;-71
2021/08/03 11:03:38;;;;;;;6.95;3.70;;;;;;;;;;5079104;28;20028;-71
2021/08/03 11:06:10;;;;;;;6.97;3.55;;;;;;;;;;5082800;28;20077;-71
2021/08/03 11:08:43;;;;;;;9.70;4.57;;;;;;;;;;5082791;28;20020;-71
2021/08/03 11:11:12;;;;;;;10.32;4.03;;;;;;;;;;5081913;28;20591;-72
2021/08/03 11:13:41;;;;;;;7.47;3.70;;;;;;;;;;5072434;28;20034;-71
2021/08/03 11:16:33;;;;;;;11.30;4.85;;;;;;;;;;5081662;28;20509;-71
2021/08/03 11:19:04;;;;;;;10.77;4.00;;;;;;;;;;5082366;28;20050;-71
2021/08/03 11:21:31;;;;;;;8.93;4.10;;;;;;;;;;5079630;28;20089;-71
2021/08/03 11:23:59;;;;;;;8.40;4.00;;;;;;;;;;5073559;28;20761;-71
2021/08/03 11:26:27;;;;;;;6.80;3.75;;;;;;;;;;5080622;28;20028;-71
2021/08/03 11:29:00;;;;;;;15.50;4.40;;;;;;;;;;5076018;28;20024;-71
2021/08/03 11:31:38;;;;;;;9.70;4.10;;;;;;;;;;5068790;28;20610;-71
2021/08/03 11:34:05;;;;;;;9.98;4.38;;;;;;;;;;5080307;28;20016;-71
2021/08/03 11:36:31;;;;;;;15.35;4.72;;;;;;;;;;5082261;28;20395;-71
2021/08/03 11:38:57;;;;;;;9.98;4.18;;;;;;;;;;5074761;28;20158;-71
2021/08/03 11:41:24;;;;;;;10.43;4.68;;;;;;;;;;5078280;28;20043;-71
2021/08/03 11:43:52;;;;;;;12.77;4.50;;;;;;;;;;5078163;28;20107;-71
2021/08/03 11:46:28;;;;;;;10.48;4.38;;;;;;;;;;5080648;28;20039;-71
2021/08/03 11:49:04;;;;;;;8.32;4.30;;;;;;;;;;5082449;28;20032;-71
2021/08/03 11:51:47;;;;;;;8.35;4.00;;;;;;;;;;5080746;28;20028;-71
2021/08/03 11:54:17;;;;;;;8.15;4.60;;;;;;;;;;5069369;28;20853;-72
2021/08/03 11:56:44;;;;;;;8.55;4.05;;;;;;;;;;5080637;28;20035;-72
2021/08/03 11:59:11;;;;;;;7.70;4.22;;;;;;;;;;5082232;28;20058;-71
2021/08/03 12:01:46;;;;;;;7.93;4.63;;;;;;;;;;5081124;28;20028;-72
2021/08/03 12:04:13;;;;;;;6.93;4.20;;;;;;;;;;5074217;28;20059;-72
2021/08/03 12:06:39;;;;;;;7.07;3.63;;;;;;;;;;5080285;28;20077;-71
2021/08/03 12:09:05;;;;;;;8.82;4.10;;;;;;;;;;5082122;28;20021;-72
2021/08/03 12:11:32;;;;;;;7.35;3.90;;;;;;;;;;5081584;28;20028;-71
2021/08/03 12:14:07;;;;;;;6.32;3.30;;;;;;;;;;5075231;28;20074;-71
2021/08/03 12:16:33;;;;;;;8.63;4.28;;;;;;;;;;5059895;28;20034;-71
2021/08/03 12:19:00;;;;;;;7.97;3.45;;;;;;;;;;5074273;28;20047;-71
2021/08/03 12:21:37;;;;;;;10.50;3.65;;;;;;;;;;5073234;28;20048;-70
2021/08/03 12:24:09;;;;;;;8.68;3.67;;;;;;;;;;5066115;28;20032;-71
2021/08/03 12:26:36;;;;;;;14.73;4.60;;;;;;;;;;5076645;28;20024;-71
2021/08/03 12:29:02;;;;;;;7.93;3.63;;;;;;;;;;5073271;28;20077;-72
2021/08/03 12:31:30;;;;;;;10.75;3.75;;;;;;;;;;5081784;28;20054;-71
2021/08/03 12:34:09;;;;;;;9.98;3.85;;;;;;;;;;5079841;28;20093;-71
2021/08/03 12:36:48;;;;;;;10.90;3.47;;;;;;;;;;5081032;28;20449;-72
2021/08/03 12:39:23;;;;;;;7.30;3.72;;;;;;;;;;5074975;28;20636;-71
2021/08/03 12:42:53;;;;;;;9.75;3.55;;;;;;;;;;5076284;28;20040;-71
2021/08/03 12:45:16;;;;;;;11.05;3.85;;;;;;;;;;5075019;28;20771;-71
2021/08/03 12:47:59;;;;;;;9.90;4.03;;;;;;;;;;5081153;28;20024;-70
2021/08/03 12:50:25;;;;;;;5.70;3.03;;;;;;;;;;5080892;28;20024;-71
2021/08/03 12:52:57;;;;;;;4.00;2.92;;;;;;;;;;5079445;28;20092;-71
2021/08/03 12:55:25;;;;;;;7.85;3.17;;;;;;;;;;5081162;28;20012;-71
2021/08/03 12:57:52;;;;;;;9.88;3.28;;;;;;;;;;5081436;28;20537;-71
2021/08/03 13:00:27;;;;;;;8.55;3.25;;;;;;;;;;5081039;28;20035;-71
2021/08/03 13:02:53;;;;;;;11.10;3.65;;;;;;;;;;5080810;28;20036;-71
2021/08/03 13:05:19;;;;;;;7.07;3.72;;;;;;;;;;5079707;28;20024;-71
2021/08/03 13:07:45;;;;;;;6.03;2.78;;;;;;;;;;5081312;28;20017;-71
2021/08/03 13:10:11;;;;;;;8.52;3.38;;;;;;;;;;5081321;28;20353;-71
2021/08/03 13:12:37;;;;;;;7.47;2.75;;;;;;;;;;5080610;28;20033;-71
2021/08/03 13:15:04;;;;;;;12.30;3.20;;;;;;;;;;5083459;28;20084;-71
2021/08/03 13:17:30;;;;;;;9.73;3.38;;;;;;;;;;5085093;28;20578;-71
2021/08/03 13:19:56;;;;;;;7.15;2.92;;;;;;;;;;5083829;28;20472;-71
2021/08/03 13:22:22;;;;;;;8.35;3.10;;;;;;;;;;5082501;28;20498;-71
2021/08/03 13:24:49;;;;;;;7.47;3.00;;;;;;;;;;5071725;28;20127;-72
2021/08/03 13:27:15;;;;;;;9.25;3.63;;;;;;;;;;5084812;28;20020;-72
2021/08/03 13:29:41;;;;;;;17.38;3.53;;;;;;;;;;5073739;28;20024;-71
2021/08/03 13:32:07;;;;;;;8.32;2.95;;;;;;;;;;5077393;28;20023;-71
2021/08/03 13:34:33;;;;;;;5.85;3.00;;;;;;;;;;5079482;28;20052;-71
2021/08/03 13:36:59;;;;;;;10.88;3.20;;;;;;;;;;5082497;28;20506;-71
2021/08/03 13:39:25;;;;;;;5.95;3.17;;;;;;;;;;5082651;28;20306;-71
2021/08/03 13:41:52;;;;;;;11.02;3.30;;;;;;;;;;5084148;28;20012;-71
2021/08/03 13:44:18;;;;;;;8.18;2.85;;;;;;;;;;5084020;28;20020;-71
2021/08/03 13:46:45;;;;;;;6.63;3.17;;;;;;;;;;5082507;28;20020;-71
2021/08/03 13:49:11;;;;;;;6.28;2.83;;;;;;;;;;5084628;28;20024;-71
2021/08/03 13:51:38;;;;;;;5.68;3.10;;;;;;;;;;5083802;28;20024;-71
2021/08/03 13:54:04;;;;;;;6.28;2.90;;;;;;;;;;5083743;28;20066;-72
2021/08/03 13:56:30;;;;;;;6.05;3.05;;;;;;;;;;5082817;28;20020;-71
2021/08/03 13:58:59;;;;;;;7.05;3.00;;;;;;;;;;5083768;28;20495;-71
2021/08/03 14:01:25;;;;;;;11.52;2.97;;;;;;;;;;5084010;28;20448;-71
2021/08/03 14:03:51;;;;;;;6.32;2.78;;;;;;;;;;5083637;28;20095;-71
2021/08/03 14:06:20;;;;;;;8.65;3.25;;;;;;;;;;5084077;28;20028;-71
2021/08/03 14:08:46;;;;;;;8.45;3.10;;;;;;;;;;5084132;28;20471;-71
2021/08/03 14:11:12;;;;;;;7.47;2.80;;;;;;;;;;5082484;28;20031;-71
2021/08/03 14:13:38;;;;;;;6.82;2.83;;;;;;;;;;5083932;28;20024;-71
2021/08/03 14:16:08;;;;;;;8.52;3.05;;;;;;;;;;5084193;28;20086;-71
2021/08/03 14:18:35;;;;;;;9.90;3.35;;;;;;;;;;5083566;28;20052;-71
2021/08/03 14:21:01;;;;;;;10.43;3.72;;;;;;;;;;5080845;28;20032;-71
2021/08/03 14:23:28;;;;;;;10.95;3.40;;;;;;;;;;5082169;28;20031;-71
2021/08/03 14:25:54;;;;;;;8.02;3.20;;;;;;;;;;5083758;28;20020;-71
2021/08/03 14:28:20;;;;;;;7.47;2.90;;;;;;;;;;5082006;28;20035;-71
2021/08/03 14:30:46;;;;;;;8.60;3.25;;;;;;;;;;5083433;28;20481;-71
2021/08/03 14:33:12;;;;;;;10.15;3.40;;;;;;;;;;5083442;28;20028;-71
2021/08/03 14:35:39;;;;;;;9.10;3.10;;;;;;;;;;5081613;28;20103;-71
2021/08/03 14:38:08;;;;;;;8.10;2.88;;;;;;;;;;5082908;28;20031;-71
2021/08/03 14:40:35;;;;;;;9.63;3.00;;;;;;;;;;5083032;28;20596;-71
2021/08/03 14:43:01;;;;;;;7.15;2.55;;;;;;;;;;5083141;28;20486;-71
2021/08/03 14:45:27;;;;;;;9.02;3.72;;;;;;;;;;5083150;28;20089;-71
2021/08/03 14:47:53;;;;;;;7.05;3.33;;;;;;;;;;5081709;28;20020;-71